Terminal Aerodrome Forecast
Issued by NWS Jackson, MS

Current Version | Previous Version | Text Only | Print | Product List | Glossary On
Versions: 1 2 3 4 5 6 7 8 9 10 11 12 13 14
000
FTUS44 KJAN 241700
TAFMEI
TAF
KMEI 241736Z 2418/2518 19009KT P6SM FEW050 BKN250
     FM250600 20008KT P6SM OVC015
     FM250800 22008KT P6SM VCSH OVC030
     FM251200 25007KT P6SM OVC100=

USA.gov is the U.S. government's official web portal to all federal, state and local government web resources and services.